Main page
METAR-TAF:

METAR-TAF

Airports :

Tongatapu, Tonga

Fuaʻamotu International Airport

latitude: 21-14S, longitude: 175-09W, elevation: 38 m

Current weather observation

The report was made 43 minutes ago, at 02:00 UTC
Wind 10 kt from the East
Temperature 30°C
Humidity 79%
Pressure 1014 hPa
Visibility 10 km or more
Scattered clouds at a height of 1700 ft, Towering cumulus.

METAR: NFTF 300200Z 10010KT 9999 SCT017TCU 30/26 Q1014

Time: 15:43 (02:43 UTC)

Forecast

The report was made 4 hours and 14 minutes ago, at 22:29 UTC
Forecast valid from 30 at 00 UTC to 30 at 24 UTC
Wind 10 kt from the East
Visibility 10 km or more
Few clouds at a height of 800 ft
Scattered clouds at a height of 1600 ft

TAF: NFTF 292229Z 3000/3024 09010KT 9999 FEW008 SCT016

Weather observations and forecasts of more than 4000 airports (METAR and TAF reports).

The available stations are represented by yellow and red dots on the map.

Hover mouse over dot to see the name of the station.

Then click to see weather observations and forecasts.

To change the map : click on the green buttons with a black cross to zoom in, on the green button with a dash to zoom out, or on the green arrows for adjacent maps.


METAR-TAF: